createdAt,value
2023-03-19T00:00:02.512Z,0.00
2023-03-19T00:01:02.468Z,0.00
2023-03-19T00:02:16.337Z,0.00
2023-03-19T00:03:03.860Z,0.00
2023-03-19T00:04:02.494Z,0.00
2023-03-19T00:05:02.493Z,0.00
2023-03-19T00:06:02.449Z,0.00
2023-03-19T00:07:02.445Z,0.00
2023-03-19T00:08:02.442Z,0.00
2023-03-19T00:09:02.532Z,0.00
2023-03-19T00:10:02.381Z,0.00
2023-03-19T00:11:02.387Z,0.00
2023-03-19T00:12:02.353Z,0.00
2023-03-19T00:13:02.348Z,0.00
2023-03-19T00:14:02.352Z,0.00
2023-03-19T00:15:02.343Z,0.00
2023-03-19T00:16:02.356Z,0.00
2023-03-19T00:17:02.305Z,0.00
2023-03-19T00:18:02.340Z,0.00
2023-03-19T00:19:03.471Z,0.00
2023-03-19T00:20:02.385Z,0.00
2023-03-19T00:21:02.274Z,0.00
2023-03-19T00:22:02.409Z,0.00
2023-03-19T00:23:02.251Z,0.00
2023-03-19T00:24:02.279Z,0.00
2023-03-19T00:25:02.300Z,0.00
2023-03-19T00:26:02.343Z,0.00
2023-03-19T00:27:02.505Z,0.00
2023-03-19T00:28:02.193Z,0.00
2023-03-19T00:29:02.145Z,0.00
2023-03-19T00:30:02.200Z,0.00
2023-03-19T00:31:02.241Z,0.00
2023-03-19T00:32:02.146Z,0.00
2023-03-19T00:33:02.161Z,0.00
2023-03-19T00:34:02.094Z,0.00
2023-03-19T00:35:02.093Z,0.00
2023-03-19T00:36:02.100Z,0.00
2023-03-19T00:37:02.072Z,0.00
2023-03-19T00:38:02.057Z,0.00
2023-03-19T00:39:02.041Z,0.00
2023-03-19T00:40:02.076Z,0.00
2023-03-19T00:41:02.026Z,0.00
2023-03-19T00:42:01.995Z,0.00
2023-03-19T00:43:01.998Z,0.00
2023-03-19T00:44:01.988Z,0.00
2023-03-19T00:45:01.973Z,0.00
2023-03-19T00:46:02.008Z,0.00
2023-03-19T00:47:01.944Z,0.00
2023-03-19T00:48:01.936Z,0.00
2023-03-19T00:49:01.934Z,0.00
2023-03-19T00:50:01.938Z,0.00
2023-03-19T00:51:01.921Z,0.00
2023-03-19T00:52:01.896Z,0.00
2023-03-19T00:53:01.878Z,0.00
2023-03-19T00:54:01.868Z,0.00
2023-03-19T00:55:01.864Z,0.00
2023-03-19T00:56:01.876Z,0.00
2023-03-19T00:57:01.947Z,0.00
2023-03-19T00:58:01.838Z,0.00
2023-03-19T00:59:01.813Z,0.00
2023-03-19T01:00:01.813Z,0.00
2023-03-19T01:01:01.821Z,0.00
2023-03-19T01:02:01.795Z,0.00
2023-03-19T01:03:01.769Z,0.00
2023-03-19T01:04:01.881Z,0.00
2023-03-19T01:05:01.746Z,0.00
2023-03-19T01:06:01.729Z,0.00
2023-03-19T01:07:07.022Z,0.00
2023-03-19T01:08:01.702Z,0.00
2023-03-19T01:09:01.700Z,0.00
2023-03-19T01:10:01.685Z,0.00
2023-03-19T01:11:01.684Z,0.00
2023-03-19T01:12:01.670Z,0.00
2023-03-19T01:13:01.672Z,0.00
2023-03-19T01:14:01.650Z,0.00
2023-03-19T01:15:01.672Z,0.00
2023-03-19T01:16:01.621Z,0.00
2023-03-19T01:17:01.613Z,0.00
2023-03-19T01:18:01.626Z,0.00
2023-03-19T01:19:01.593Z,0.00
2023-03-19T01:20:01.604Z,0.00
2023-03-19T01:21:01.566Z,0.00
2023-03-19T01:22:01.557Z,0.00
2023-03-19T01:23:01.586Z,0.00
2023-03-19T01:24:01.545Z,0.00
2023-03-19T01:25:01.522Z,0.00
2023-03-19T01:26:01.512Z,0.00
2023-03-19T01:27:01.507Z,0.00
2023-03-19T01:28:01.519Z,0.00
2023-03-19T01:29:01.482Z,0.00
2023-03-19T01:30:01.477Z,0.00
2023-03-19T01:31:01.487Z,0.00
2023-03-19T01:32:01.443Z,0.00
2023-03-19T01:33:01.520Z,0.00
2023-03-19T01:34:01.423Z,0.00
2023-03-19T01:35:01.413Z,0.00
2023-03-19T01:36:01.436Z,0.00
2023-03-19T01:37:01.448Z,0.00
2023-03-19T01:38:01.383Z,0.00
2023-03-19T01:39:01.399Z,0.00
2023-03-19T01:40:01.365Z,0.00
2023-03-19T01:41:01.350Z,0.00
2023-03-19T01:42:01.333Z,0.00
2023-03-19T01:43:01.334Z,0.00
2023-03-19T01:44:01.342Z,0.00
2023-03-19T01:45:01.310Z,0.00
2023-03-19T01:46:01.294Z,0.00
2023-03-19T01:47:01.284Z,0.00
2023-03-19T01:48:01.274Z,0.00
2023-03-19T01:49:01.292Z,0.00
2023-03-19T01:50:01.252Z,0.00
2023-03-19T01:51:01.262Z,0.00
2023-03-19T01:52:01.304Z,0.00
2023-03-19T01:53:01.219Z,0.00
2023-03-19T01:54:01.201Z,0.00
2023-03-19T01:55:01.192Z,0.00
2023-03-19T01:56:01.211Z,0.00
2023-03-19T01:57:01.164Z,0.00
2023-03-19T01:58:01.162Z,0.00
2023-03-19T01:59:01.149Z,0.00
2023-03-19T02:00:01.138Z,0.00
2023-03-19T02:01:01.132Z,0.00
2023-03-19T02:02:01.164Z,0.00
2023-03-19T02:03:01.099Z,0.00
2023-03-19T02:04:01.110Z,0.00
2023-03-19T02:05:01.074Z,0.00
2023-03-19T02:06:01.099Z,0.00
2023-03-19T02:07:01.073Z,0.00
2023-03-19T02:08:01.081Z,0.00
2023-03-19T02:09:01.028Z,0.00
2023-03-19T02:10:01.018Z,0.00
2023-03-19T02:11:01.004Z,0.00
2023-03-19T02:12:01.020Z,0.00
2023-03-19T02:13:01.028Z,0.00
2023-03-19T02:14:00.976Z,0.00
2023-03-19T02:15:00.962Z,0.00
2023-03-19T02:16:00.989Z,0.00
2023-03-19T02:17:00.944Z,0.00
2023-03-19T02:18:00.923Z,0.00
2023-03-19T02:19:00.912Z,0.00
2023-03-19T02:20:00.902Z,0.00
2023-03-19T02:21:00.883Z,0.00
2023-03-19T02:22:00.910Z,0.00
2023-03-19T02:23:00.900Z,0.00
2023-03-19T02:24:00.862Z,0.00
2023-03-19T02:25:00.859Z,0.00
2023-03-19T02:26:00.843Z,0.00
2023-03-19T02:27:00.843Z,0.00
2023-03-19T02:28:00.810Z,0.00
2023-03-19T02:29:00.822Z,0.00
2023-03-19T02:30:02.825Z,0.00
2023-03-19T02:31:00.816Z,0.00
2023-03-19T02:32:00.858Z,0.00
2023-03-19T02:33:00.779Z,0.00
2023-03-19T02:34:00.768Z,0.00
2023-03-19T02:35:00.732Z,0.00
2023-03-19T02:36:00.833Z,0.00
2023-03-19T02:37:00.707Z,0.00
2023-03-19T02:38:00.720Z,0.00
2023-03-19T02:39:00.704Z,0.00
2023-03-19T02:40:00.682Z,0.00
2023-03-19T02:41:00.661Z,0.00
2023-03-19T02:42:00.651Z,0.00
2023-03-19T02:43:00.635Z,0.00
2023-03-19T02:44:00.652Z,0.00
2023-03-19T02:45:00.642Z,0.00
2023-03-19T02:46:00.671Z,0.00
2023-03-19T02:47:00.675Z,0.00
2023-03-19T02:48:00.585Z,0.00
2023-03-19T02:49:00.618Z,0.00
2023-03-19T02:50:00.559Z,0.00
2023-03-19T02:51:00.558Z,0.00
2023-03-19T02:52:00.531Z,0.00
2023-03-19T02:53:00.531Z,0.00
2023-03-19T02:54:00.511Z,0.00
2023-03-19T02:55:00.525Z,0.00
2023-03-19T02:56:00.495Z,0.00
2023-03-19T02:57:00.473Z,0.00
2023-03-19T02:58:00.472Z,0.00
2023-03-19T02:59:00.458Z,0.00
2023-03-19T03:00:00.479Z,0.00
2023-03-19T03:01:00.504Z,0.00
2023-03-19T03:02:00.484Z,0.00
2023-03-19T03:03:00.410Z,0.00
2023-03-19T03:04:00.417Z,0.00
2023-03-19T03:05:00.390Z,0.00
2023-03-19T03:06:00.414Z,0.00
2023-03-19T03:07:00.369Z,0.00
2023-03-19T03:08:00.361Z,0.00
2023-03-19T03:09:00.340Z,0.00
2023-03-19T03:10:00.339Z,0.00
2023-03-19T03:11:00.331Z,0.00
2023-03-19T03:12:00.340Z,0.00
2023-03-19T03:13:00.311Z,0.00
2023-03-19T03:14:00.301Z,0.00
2023-03-19T03:15:00.306Z,0.00
2023-03-19T03:16:00.360Z,0.00
2023-03-19T03:17:00.265Z,0.00
2023-03-19T03:18:00.259Z,0.00
2023-03-19T03:19:00.233Z,0.00
2023-03-19T03:20:00.232Z,0.00
2023-03-19T03:21:00.228Z,0.00
2023-03-19T03:22:00.234Z,0.00
2023-03-19T03:23:00.199Z,0.00
2023-03-19T03:24:00.193Z,0.00
2023-03-19T03:25:00.168Z,0.00
2023-03-19T03:26:00.203Z,0.00
2023-03-19T03:27:00.161Z,0.00
2023-03-19T03:28:00.168Z,0.00
2023-03-19T03:29:00.122Z,0.00
2023-03-19T03:30:00.189Z,0.00
2023-03-19T03:31:00.107Z,0.00
2023-03-19T03:32:00.122Z,0.00
2023-03-19T03:33:00.199Z,0.00
2023-03-19T03:34:00.090Z,0.00
2023-03-19T03:35:00.094Z,0.00
2023-03-19T03:36:00.057Z,0.00
2023-03-19T03:37:00.045Z,0.00
2023-03-19T03:38:00.067Z,0.00
2023-03-19T03:39:00.026Z,0.00
2023-03-19T03:39:59.998Z,0.00
2023-03-19T03:40:59.996Z,0.00
2023-03-19T03:41:59.987Z,0.00
2023-03-19T03:42:59.965Z,0.00
2023-03-19T03:43:59.976Z,0.00
2023-03-19T03:44:59.946Z,0.00
2023-03-19T03:45:59.987Z,0.00
2023-03-19T03:46:59.925Z,0.00
2023-03-19T03:47:59.930Z,0.00
2023-03-19T03:48:59.935Z,0.00
2023-03-19T03:49:59.897Z,0.00
2023-03-19T03:50:59.891Z,0.00
2023-03-19T03:51:59.870Z,0.00
2023-03-19T03:52:59.870Z,0.00
2023-03-19T03:53:59.872Z,0.00
2023-03-19T03:54:59.837Z,0.00
2023-03-19T03:55:59.825Z,0.00
2023-03-19T03:57:02.108Z,0.00
2023-03-19T03:57:59.808Z,0.00
2023-03-19T03:58:59.796Z,0.00
2023-03-19T03:59:59.814Z,0.00
2023-03-19T04:00:59.799Z,0.00
2023-03-19T04:01:59.828Z,0.00
2023-03-19T04:02:59.820Z,0.00
2023-03-19T04:03:59.758Z,0.00
2023-03-19T04:04:59.728Z,0.00
2023-03-19T04:05:59.751Z,0.00
2023-03-19T04:06:59.714Z,0.00
2023-03-19T04:07:59.708Z,0.00
2023-03-19T04:08:59.688Z,0.00
2023-03-19T04:09:59.688Z,0.00
2023-03-19T04:10:59.686Z,0.00
2023-03-19T04:11:59.659Z,0.00
2023-03-19T04:12:59.642Z,0.00
2023-03-19T04:13:59.637Z,0.00
2023-03-19T04:14:59.619Z,0.00
2023-03-19T04:15:59.651Z,0.00
2023-03-19T04:16:59.607Z,0.00
2023-03-19T04:17:59.614Z,0.00
2023-03-19T04:18:59.579Z,0.00
2023-03-19T04:19:59.568Z,0.00
2023-03-19T04:20:59.550Z,0.00
2023-03-19T04:21:59.572Z,0.00
2023-03-19T04:22:59.528Z,0.00
2023-03-19T04:23:59.541Z,0.00
2023-03-19T04:24:59.512Z,0.00
2023-03-19T04:25:59.500Z,0.00
2023-03-19T04:26:59.488Z,0.00
2023-03-19T04:27:59.513Z,0.00
2023-03-19T04:28:59.461Z,0.00
2023-03-19T04:30:07.247Z,0.00
2023-03-19T04:30:59.485Z,0.00
2023-03-19T04:31:59.487Z,0.00
2023-03-19T04:32:59.453Z,0.00
2023-03-19T04:33:59.424Z,0.00
2023-03-19T04:34:59.401Z,0.00
2023-03-19T04:35:59.439Z,0.00
2023-03-19T04:36:59.387Z,0.00
2023-03-19T04:37:59.402Z,0.00
2023-03-19T04:38:59.359Z,0.00
2023-03-19T04:39:59.359Z,0.00
2023-03-19T04:40:59.339Z,0.00
2023-03-19T04:41:59.332Z,0.00
2023-03-19T04:42:59.322Z,0.00
2023-03-19T04:43:59.338Z,0.00
2023-03-19T04:44:59.297Z,0.00
2023-03-19T04:45:59.341Z,0.00
2023-03-19T04:46:59.266Z,0.00
2023-03-19T04:47:59.268Z,0.00
2023-03-19T04:48:59.248Z,0.00
2023-03-19T04:49:59.257Z,0.00
2023-03-19T04:50:59.238Z,0.00
2023-03-19T04:51:59.247Z,0.00
2023-03-19T04:52:59.210Z,0.00
2023-03-19T04:53:59.194Z,0.00
2023-03-19T04:54:59.208Z,0.00
2023-03-19T04:55:59.175Z,0.00
2023-03-19T04:56:59.157Z,0.00
2023-03-19T04:57:59.157Z,0.00
2023-03-19T04:58:59.170Z,0.00
2023-03-19T04:59:59.127Z,0.00
2023-03-19T05:00:59.131Z,0.00
2023-03-19T05:01:59.106Z,0.00
2023-03-19T05:02:59.133Z,0.00
2023-03-19T05:03:59.155Z,0.00
2023-03-19T05:04:59.081Z,0.00
2023-03-19T05:05:59.087Z,0.00
2023-03-19T05:06:59.069Z,0.00
2023-03-19T05:07:59.051Z,0.00
2023-03-19T05:08:59.037Z,0.00
2023-03-19T05:09:59.049Z,0.00
2023-03-19T05:10:59.010Z,0.00
2023-03-19T05:11:59.030Z,0.00
2023-03-19T05:12:58.992Z,0.00
2023-03-19T05:13:58.986Z,0.00
2023-03-19T05:14:58.988Z,0.00
2023-03-19T05:15:59.021Z,0.00
2023-03-19T05:16:58.947Z,0.00
2023-03-19T05:17:58.941Z,0.00
2023-03-19T05:18:58.930Z,0.00
2023-03-19T05:19:58.918Z,0.00
2023-03-19T05:20:58.940Z,0.00
2023-03-19T05:21:58.900Z,0.00
2023-03-19T05:22:58.883Z,0.00
2023-03-19T05:23:58.876Z,0.00
2023-03-19T05:24:58.861Z,0.00
2023-03-19T05:25:58.861Z,0.00
2023-03-19T05:26:58.877Z,0.00
2023-03-19T05:27:58.840Z,0.00
2023-03-19T05:28:58.858Z,0.00
2023-03-19T05:29:58.818Z,0.00
2023-03-19T05:30:58.837Z,0.00
2023-03-19T05:31:58.790Z,0.00
2023-03-19T05:32:58.834Z,0.00
2023-03-19T05:33:58.783Z,0.00
2023-03-19T05:34:58.777Z,0.00
2023-03-19T05:35:58.771Z,0.00
2023-03-19T05:36:58.735Z,0.00
2023-03-19T05:37:58.734Z,5.62
2023-03-19T05:38:58.730Z,5.62
2023-03-19T05:39:58.702Z,5.62
2023-03-19T05:40:58.688Z,5.62
2023-03-19T05:41:58.672Z,5.62
2023-03-19T05:42:58.703Z,5.62
2023-03-19T05:43:58.657Z,11.25
2023-03-19T05:44:58.654Z,11.25
2023-03-19T05:45:58.629Z,11.25
2023-03-19T05:46:58.629Z,11.25
2023-03-19T05:47:58.624Z,11.25
2023-03-19T05:48:58.623Z,11.25
2023-03-19T05:49:58.591Z,11.25
2023-03-19T05:50:58.579Z,16.88
2023-03-19T05:51:58.573Z,16.88
2023-03-19T05:52:58.560Z,16.88
2023-03-19T05:53:58.548Z,16.88
2023-03-19T05:54:58.558Z,22.50
2023-03-19T05:55:58.529Z,22.50
2023-03-19T05:56:58.514Z,22.50
2023-03-19T05:57:58.500Z,22.50
2023-03-19T05:58:58.491Z,22.50
2023-03-19T05:59:58.500Z,22.50
2023-03-19T06:00:58.460Z,28.12
2023-03-19T06:01:58.455Z,28.12
2023-03-19T06:02:58.457Z,28.12
2023-03-19T06:03:58.453Z,33.75
2023-03-19T06:04:58.420Z,33.75
2023-03-19T06:05:58.432Z,33.75
2023-03-19T06:06:58.400Z,39.38
2023-03-19T06:07:58.400Z,39.38
2023-03-19T06:08:58.371Z,45.00
2023-03-19T06:09:58.371Z,45.00
2023-03-19T06:10:58.380Z,50.62
2023-03-19T06:11:58.340Z,50.62
2023-03-19T06:12:58.337Z,50.62
2023-03-19T06:13:58.318Z,56.25
2023-03-19T06:14:58.318Z,56.25
2023-03-19T06:15:58.348Z,56.25
2023-03-19T06:16:58.319Z,61.88
2023-03-19T06:17:58.282Z,61.88
2023-03-19T06:18:58.261Z,67.50
2023-03-19T06:19:58.249Z,67.50
2023-03-19T06:20:58.250Z,73.12
2023-03-19T06:21:58.271Z,78.75
2023-03-19T06:22:58.223Z,84.38
2023-03-19T06:23:58.208Z,90.00
2023-03-19T06:24:58.200Z,95.62
2023-03-19T06:25:58.178Z,90.00
2023-03-19T06:26:58.168Z,95.62
2023-03-19T06:27:58.181Z,101.25
2023-03-19T06:28:58.144Z,101.25
2023-03-19T06:29:58.133Z,101.25
2023-03-19T06:30:58.139Z,101.25
2023-03-19T06:31:58.359Z,106.88
2023-03-19T06:32:58.163Z,118.12
2023-03-19T06:33:58.113Z,123.75
2023-03-19T06:34:58.090Z,129.38
2023-03-19T06:35:58.106Z,135.00
2023-03-19T06:36:58.145Z,135.00
2023-03-19T06:37:58.046Z,140.62
2023-03-19T06:38:58.039Z,140.62
2023-03-19T06:39:58.027Z,140.62
2023-03-19T06:40:58.015Z,140.62
2023-03-19T06:41:58.047Z,129.38
2023-03-19T06:42:58.025Z,123.75
2023-03-19T06:43:57.986Z,118.12
2023-03-19T06:44:57.974Z,123.75
2023-03-19T06:45:57.997Z,123.75
2023-03-19T06:46:57.946Z,129.38
2023-03-19T06:47:57.941Z,129.38
2023-03-19T06:48:57.946Z,146.25
2023-03-19T06:49:57.910Z,151.88
2023-03-19T06:50:57.899Z,168.75
2023-03-19T06:51:57.900Z,191.25
2023-03-19T06:52:57.904Z,196.88
2023-03-19T06:53:57.892Z,213.75
2023-03-19T06:54:57.859Z,225.00
2023-03-19T06:55:57.860Z,225.00
2023-03-19T06:56:57.838Z,236.25
2023-03-19T06:57:57.849Z,236.25
2023-03-19T06:58:57.831Z,241.88
2023-03-19T06:59:57.819Z,241.88
2023-03-19T07:00:57.844Z,247.50
2023-03-19T07:01:57.780Z,253.12
2023-03-19T07:02:57.778Z,253.12
2023-03-19T07:03:57.829Z,253.12
2023-03-19T07:04:57.748Z,270.00
2023-03-19T07:05:57.743Z,281.25
2023-03-19T07:06:57.737Z,281.25
2023-03-19T07:07:57.713Z,270.00
2023-03-19T07:08:57.702Z,236.25
2023-03-19T07:09:57.709Z,219.38
2023-03-19T07:10:57.678Z,213.75
2023-03-19T07:11:57.690Z,213.75
2023-03-19T07:12:57.649Z,225.00
2023-03-19T07:13:57.638Z,241.88
2023-03-19T07:14:57.636Z,247.50
2023-03-19T07:15:57.618Z,258.75
2023-03-19T07:16:57.676Z,270.00
2023-03-19T07:17:57.598Z,281.25
2023-03-19T07:18:57.589Z,292.50
2023-03-19T07:19:57.580Z,309.38
2023-03-19T07:20:57.566Z,337.50
2023-03-19T07:21:57.577Z,360.00
2023-03-19T07:22:57.547Z,331.88
2023-03-19T07:23:57.544Z,320.62
2023-03-19T07:24:57.524Z,309.38
2023-03-19T07:25:57.512Z,331.88
2023-03-19T07:26:57.541Z,337.50
2023-03-19T07:27:57.496Z,331.88
2023-03-19T07:28:57.490Z,337.50
2023-03-19T07:29:57.464Z,309.38
2023-03-19T07:30:57.467Z,303.75
2023-03-19T07:31:57.493Z,286.88
2023-03-19T07:32:57.537Z,253.12
2023-03-19T07:33:57.421Z,281.25
2023-03-19T07:34:57.419Z,298.12
2023-03-19T07:35:57.417Z,258.75
2023-03-19T07:36:57.392Z,219.38
2023-03-19T07:37:57.403Z,202.50
2023-03-19T07:38:57.400Z,191.25
2023-03-19T07:39:57.353Z,185.62
2023-03-19T07:41:02.306Z,185.62
2023-03-19T07:41:58.334Z,185.62
2023-03-19T07:42:57.327Z,208.12
2023-03-19T07:43:57.351Z,253.12
2023-03-19T07:44:57.289Z,270.00
2023-03-19T07:45:57.321Z,298.12
2023-03-19T07:46:57.364Z,281.25
2023-03-19T07:47:57.330Z,281.25
2023-03-19T07:48:57.283Z,253.12
2023-03-19T07:49:57.250Z,236.25
2023-03-19T07:50:57.240Z,236.25
2023-03-19T07:51:57.297Z,230.62
2023-03-19T07:52:57.214Z,219.38
2023-03-19T07:53:57.241Z,230.62
2023-03-19T07:54:57.210Z,258.75
2023-03-19T07:55:57.174Z,286.88
2023-03-19T07:56:57.169Z,298.12
2023-03-19T07:57:57.162Z,281.25
2023-03-19T07:58:57.142Z,281.25
2023-03-19T07:59:57.133Z,247.50
2023-03-19T08:00:57.173Z,236.25
2023-03-19T08:01:57.146Z,241.88
2023-03-19T08:02:57.107Z,270.00
2023-03-19T08:03:57.087Z,298.12
2023-03-19T08:04:57.074Z,292.50
2023-03-19T08:05:57.083Z,281.25
2023-03-19T08:06:57.056Z,270.00
2023-03-19T08:07:57.042Z,275.62
2023-03-19T08:08:57.035Z,286.88
2023-03-19T08:09:57.015Z,303.75
2023-03-19T08:10:57.034Z,303.75
2023-03-19T08:11:57.011Z,320.62
2023-03-19T08:12:56.983Z,354.38
2023-03-19T08:13:56.982Z,371.25
2023-03-19T08:14:56.970Z,382.50
2023-03-19T08:15:56.965Z,399.38
2023-03-19T08:16:57.033Z,433.12
2023-03-19T08:17:56.931Z,461.25
2023-03-19T08:18:56.952Z,461.25
2023-03-19T08:19:56.913Z,472.50
2023-03-19T08:20:56.901Z,478.12
2023-03-19T08:21:56.886Z,489.38
2023-03-19T08:22:56.885Z,489.38
2023-03-19T08:23:56.890Z,483.75
2023-03-19T08:24:56.866Z,495.00
2023-03-19T08:25:56.843Z,489.38
2023-03-19T08:26:56.849Z,472.50
2023-03-19T08:27:56.823Z,461.25
2023-03-19T08:28:56.835Z,450.00
2023-03-19T08:29:56.794Z,450.00
2023-03-19T08:30:56.829Z,455.62
2023-03-19T08:31:56.771Z,444.38
2023-03-19T08:32:56.834Z,421.88
2023-03-19T08:33:56.776Z,388.12
2023-03-19T08:34:56.833Z,360.00
2023-03-19T08:35:56.761Z,343.12
2023-03-19T08:36:56.724Z,360.00
2023-03-19T08:37:56.705Z,376.88
2023-03-19T08:38:56.725Z,399.38
2023-03-19T08:39:56.687Z,393.75
2023-03-19T08:40:56.684Z,393.75
2023-03-19T08:41:56.663Z,399.38
2023-03-19T08:42:56.668Z,427.50
2023-03-19T08:43:56.667Z,478.12
2023-03-19T08:44:56.635Z,534.38
2023-03-19T08:45:56.633Z,545.62
2023-03-19T08:46:56.623Z,489.38
2023-03-19T08:47:56.596Z,450.00
2023-03-19T08:48:56.618Z,461.25
2023-03-19T08:49:56.583Z,483.75
2023-03-19T08:50:56.568Z,466.88
2023-03-19T08:51:56.556Z,495.00
2023-03-19T08:52:56.539Z,478.12
2023-03-19T08:53:56.555Z,444.38
2023-03-19T08:54:56.519Z,433.12
2023-03-19T08:55:56.547Z,466.88
2023-03-19T08:56:56.497Z,534.38
2023-03-19T08:57:56.486Z,568.12
2023-03-19T08:58:56.476Z,540.00
2023-03-19T08:59:56.468Z,517.50
2023-03-19T09:00:56.458Z,551.25
2023-03-19T09:01:56.504Z,568.12
2023-03-19T09:02:56.431Z,568.12
2023-03-19T09:03:56.421Z,568.12
2023-03-19T09:04:56.474Z,556.88
2023-03-19T09:05:56.400Z,601.88
2023-03-19T09:06:56.413Z,618.75
2023-03-19T09:07:56.370Z,652.50
2023-03-19T09:08:56.368Z,517.50
2023-03-19T09:09:56.349Z,461.25
2023-03-19T09:10:56.411Z,540.00
2023-03-19T09:11:56.351Z,568.12
2023-03-19T09:12:56.320Z,438.75
2023-03-19T09:13:56.328Z,495.00
2023-03-19T09:14:56.296Z,568.12
2023-03-19T09:15:56.307Z,573.75
2023-03-19T09:16:56.272Z,607.50
2023-03-19T09:17:56.279Z,765.00
2023-03-19T09:18:58.686Z,900.00
2023-03-19T09:19:56.242Z,793.12
2023-03-19T09:20:56.238Z,697.50
2023-03-19T09:21:56.214Z,703.12
2023-03-19T09:22:56.233Z,618.75
2023-03-19T09:23:56.222Z,551.25
2023-03-19T09:24:56.186Z,585.00
2023-03-19T09:25:56.173Z,613.12
2023-03-19T09:26:56.170Z,596.25
2023-03-19T09:27:56.154Z,596.25
2023-03-19T09:28:56.152Z,579.38
2023-03-19T09:29:56.160Z,736.88
2023-03-19T09:30:56.207Z,635.62
2023-03-19T09:31:56.125Z,528.75
2023-03-19T09:32:56.269Z,585.00
2023-03-19T09:33:56.083Z,607.50
2023-03-19T09:34:56.074Z,607.50
2023-03-19T09:35:56.104Z,551.25
2023-03-19T09:36:56.126Z,562.50
2023-03-19T09:37:56.042Z,551.25
2023-03-19T09:38:56.875Z,534.38
2023-03-19T09:39:56.035Z,613.12
2023-03-19T09:40:56.037Z,545.62
2023-03-19T09:41:56.004Z,500.62
2023-03-19T09:42:56.040Z,646.88
2023-03-19T09:43:55.970Z,691.88
2023-03-19T09:44:55.994Z,607.50
2023-03-19T09:45:55.964Z,646.88
2023-03-19T09:46:56.002Z,601.88
2023-03-19T09:47:55.952Z,585.00
2023-03-19T09:48:55.946Z,658.12
2023-03-19T09:49:55.909Z,675.00
2023-03-19T09:50:55.898Z,652.50
2023-03-19T09:51:55.942Z,691.88
2023-03-19T09:52:55.888Z,916.88
2023-03-19T09:53:55.964Z,967.50
2023-03-19T09:54:55.847Z,883.12
2023-03-19T09:55:55.846Z,905.62
2023-03-19T09:56:55.915Z,742.50
2023-03-19T09:57:55.817Z,675.00
2023-03-19T09:58:55.816Z,601.88
2023-03-19T09:59:55.816Z,613.12
2023-03-19T10:00:55.791Z,697.50
2023-03-19T10:01:55.818Z,815.62
2023-03-19T10:02:55.760Z,759.38
2023-03-19T10:03:55.788Z,663.75
2023-03-19T10:04:55.785Z,815.62
2023-03-19T10:05:55.733Z,838.12
2023-03-19T10:06:55.720Z,911.25
2023-03-19T10:07:55.710Z,725.62
2023-03-19T10:08:55.702Z,573.75
2023-03-19T10:09:55.686Z,675.00
2023-03-19T10:10:55.702Z,753.75
2023-03-19T10:11:55.681Z,776.25
2023-03-19T10:12:55.661Z,826.88
2023-03-19T10:13:55.657Z,776.25
2023-03-19T10:14:55.632Z,961.88
2023-03-19T10:15:55.645Z,877.50
2023-03-19T10:16:55.633Z,939.38
2023-03-19T10:17:55.592Z,888.75
2023-03-19T10:18:55.855Z,883.12
2023-03-19T10:19:55.576Z,849.38
2023-03-19T10:20:55.562Z,1001.25
2023-03-19T10:21:55.551Z,1805.62
2023-03-19T10:22:55.566Z,849.38
2023-03-19T10:23:55.550Z,708.75
2023-03-19T10:24:55.523Z,714.38
2023-03-19T10:25:55.508Z,641.25
2023-03-19T10:26:55.516Z,511.88
2023-03-19T10:27:55.486Z,466.88
2023-03-19T10:28:55.470Z,517.50
2023-03-19T10:29:55.496Z,540.00
2023-03-19T10:30:58.023Z,500.62
2023-03-19T10:31:55.523Z,618.75
2023-03-19T10:32:55.467Z,641.25
2023-03-19T10:33:55.419Z,720.00
2023-03-19T10:34:55.409Z,922.50
2023-03-19T10:35:55.507Z,922.50
2023-03-19T10:36:55.382Z,793.12
2023-03-19T10:37:55.420Z,736.88
2023-03-19T10:38:55.370Z,714.38
2023-03-19T10:39:55.360Z,540.00
2023-03-19T10:40:55.351Z,562.50
2023-03-19T10:41:55.347Z,888.75
2023-03-19T10:42:55.341Z,798.75
2023-03-19T10:43:55.329Z,556.88
2023-03-19T10:44:55.302Z,478.12
2023-03-19T10:45:55.316Z,534.38
2023-03-19T10:46:55.274Z,613.12
2023-03-19T10:47:55.398Z,551.25
2023-03-19T10:48:55.272Z,421.88
2023-03-19T10:49:55.312Z,337.50
2023-03-19T10:50:55.306Z,393.75
2023-03-19T10:51:55.290Z,416.25
2023-03-19T10:52:55.248Z,382.50
2023-03-19T10:53:55.306Z,376.88
2023-03-19T10:54:55.368Z,416.25
2023-03-19T10:55:55.245Z,562.50
2023-03-19T10:56:55.193Z,596.25
2023-03-19T10:57:55.221Z,708.75
2023-03-19T10:58:55.247Z,883.12
2023-03-19T10:59:55.202Z,973.12
2023-03-19T11:00:55.221Z,1057.50
2023-03-19T11:01:55.178Z,1051.88
2023-03-19T11:02:55.161Z,973.12
2023-03-19T11:03:55.230Z,905.62
2023-03-19T11:04:55.198Z,838.12
2023-03-19T11:05:55.163Z,838.12
2023-03-19T11:06:55.119Z,765.00
2023-03-19T11:07:55.104Z,658.12
2023-03-19T11:08:55.088Z,562.50
2023-03-19T11:09:55.107Z,461.25
2023-03-19T11:10:55.328Z,433.12
2023-03-19T11:11:55.074Z,455.62
2023-03-19T11:12:55.046Z,461.25
2023-03-19T11:13:55.068Z,601.88
2023-03-19T11:14:55.024Z,675.00
2023-03-19T11:15:55.061Z,596.25
2023-03-19T11:16:55.096Z,551.25
2023-03-19T11:17:54.968Z,596.25
2023-03-19T11:18:54.988Z,663.75
2023-03-19T11:19:54.985Z,770.62
2023-03-19T11:20:54.949Z,843.75
2023-03-19T11:21:54.948Z,787.50
2023-03-19T11:22:54.973Z,686.25
2023-03-19T11:23:54.926Z,708.75
2023-03-19T11:24:54.905Z,838.12
2023-03-19T11:25:54.915Z,1085.62
2023-03-19T11:26:54.887Z,1091.25
2023-03-19T11:27:54.879Z,945.00
2023-03-19T11:28:54.921Z,804.38
2023-03-19T11:29:54.874Z,759.38
2023-03-19T11:30:54.864Z,787.50
2023-03-19T11:31:54.906Z,928.12
2023-03-19T11:32:54.855Z,1057.50
2023-03-19T11:33:54.819Z,1051.88
2023-03-19T11:34:54.843Z,961.88
2023-03-19T11:35:54.838Z,967.50
2023-03-19T11:36:54.786Z,1271.25
2023-03-19T11:37:54.785Z,928.12
2023-03-19T11:38:54.768Z,753.75
2023-03-19T11:39:54.751Z,714.38
2023-03-19T11:40:54.798Z,675.00
2023-03-19T11:41:54.730Z,675.00
2023-03-19T11:42:54.711Z,759.38
2023-03-19T11:43:54.709Z,742.50
2023-03-19T11:44:54.706Z,720.00
2023-03-19T11:45:54.732Z,1006.88
2023-03-19T11:46:54.734Z,821.25
2023-03-19T11:47:54.661Z,838.12
2023-03-19T11:48:54.688Z,900.00
2023-03-19T11:49:54.629Z,1006.88
2023-03-19T11:50:54.636Z,961.88
2023-03-19T11:51:54.629Z,922.50
2023-03-19T11:52:54.604Z,905.62
2023-03-19T11:53:54.643Z,1001.25
2023-03-19T11:54:54.582Z,1051.88
2023-03-19T11:55:54.565Z,793.12
2023-03-19T11:56:54.560Z,680.62
2023-03-19T11:57:55.334Z,630.00
2023-03-19T11:58:54.465Z,624.38
2023-03-19T11:59:54.489Z,618.75
2023-03-19T12:00:54.446Z,703.12
2023-03-19T12:01:54.537Z,720.00
2023-03-19T12:02:54.426Z,613.12
2023-03-19T12:03:54.446Z,590.62
2023-03-19T12:04:54.409Z,725.62
2023-03-19T12:05:54.421Z,776.25
2023-03-19T12:06:54.381Z,804.38
2023-03-19T12:07:54.370Z,1018.12
2023-03-19T12:08:54.357Z,1299.38
2023-03-19T12:09:54.388Z,1355.62
2023-03-19T12:10:54.338Z,1333.12
2023-03-19T12:11:54.330Z,1546.88
2023-03-19T12:12:54.309Z,2694.38
2023-03-19T12:13:54.327Z,1355.62
2023-03-19T12:14:54.319Z,2840.62
2023-03-19T12:15:54.351Z,3082.50
2023-03-19T12:16:54.271Z,2266.88
2023-03-19T12:17:54.271Z,2790.00
2023-03-19T12:18:54.253Z,1170.00
2023-03-19T12:19:54.246Z,950.62
2023-03-19T12:20:54.241Z,821.25
2023-03-19T12:21:54.337Z,793.12
2023-03-19T12:22:54.221Z,1029.38
2023-03-19T12:23:54.192Z,1068.75
2023-03-19T12:24:54.198Z,950.62
2023-03-19T12:25:54.200Z,832.50
2023-03-19T12:26:54.163Z,838.12
2023-03-19T12:27:54.153Z,855.00
2023-03-19T12:28:54.135Z,894.38
2023-03-19T12:29:54.131Z,911.25
2023-03-19T12:30:54.156Z,894.38
2023-03-19T12:31:54.102Z,787.50
2023-03-19T12:32:54.250Z,731.25
2023-03-19T12:33:54.079Z,708.75
2023-03-19T12:34:54.064Z,686.25
2023-03-19T12:35:54.112Z,680.62
2023-03-19T12:36:54.042Z,675.00
2023-03-19T12:37:54.041Z,697.50
2023-03-19T12:38:54.024Z,748.12
2023-03-19T12:39:54.014Z,725.62
2023-03-19T12:40:54.033Z,646.88
2023-03-19T12:41:53.994Z,601.88
2023-03-19T12:42:53.982Z,601.88
2023-03-19T12:43:53.994Z,641.25
2023-03-19T12:44:53.966Z,613.12
2023-03-19T12:45:53.960Z,500.62
2023-03-19T12:46:54.049Z,405.00
2023-03-19T12:47:53.925Z,337.50
2023-03-19T12:48:53.913Z,326.25
2023-03-19T12:49:53.895Z,354.38